Time;durP1;ratioP1;P1;durP2;ratioP2;P2;SDS_P1;SDS_P2;PMS_P1;PMS_P2;Temp;Humidity;BMP_temperature;BMP_pressure;BME280_temperature;BME280_humidity;BME280_pressure;Samples;Min_cycle;Max_cycle;Signal;HPM_P1;HPM_P2
2021/11/21 00:00:47;;;;;;;29.15;15.05;;;;;;;9.56;71.75;100213.28;5002776;28;20050;-68
2021/11/21 00:03:13;;;;;;;25.17;15.73;;;;;;;9.27;72.71;100209.88;5002665;28;20030;-67
2021/11/21 00:05:44;;;;;;;24.75;13.32;;;;;;;9.24;72.06;100203.06;5002854;28;20057;-68
2021/11/21 00:08:12;;;;;;;22.38;11.63;;;;;;;9.21;72.56;100207.78;5002514;28;20041;-67
2021/11/21 00:10:37;;;;;;;25.42;14.52;;;;;;;9.26;72.34;100208.19;5017970;28;20030;-69
2021/11/21 00:13:04;;;;;;;19.20;11.80;;;;;;;9.33;71.95;100208.47;5002551;28;20339;-69
2021/11/21 00:15:30;;;;;;;16.55;9.95;;;;;;;9.59;70.69;100206.88;5002682;28;20041;-67
2021/11/21 00:17:55;;;;;;;18.10;11.10;;;;;;;9.64;70.05;100211.75;5002678;28;20042;-67
2021/11/21 00:20:21;;;;;;;19.50;11.45;;;;;;;9.47;70.65;100202.75;5002615;28;20034;-67
2021/11/21 00:22:47;;;;;;;24.17;12.63;;;;;;;9.61;70.26;100207.56;5002572;28;20227;-68
2021/11/21 00:25:13;;;;;;;19.85;12.20;;;;;;;9.44;70.73;100210.97;5002539;28;20308;-68
2021/11/21 00:27:38;;;;;;;17.13;10.70;;;;;;;9.45;71.20;100212.63;5002643;28;20104;-69
2021/11/21 00:30:05;;;;;;;15.68;10.20;;;;;;;9.27;71.37;100194.84;5002291;28;20039;-68
2021/11/21 00:32:31;;;;;;;15.27;10.02;;;;;;;9.30;71.45;100201.66;5002435;28;20038;-67
2021/11/21 00:34:57;;;;;;;16.08;9.23;;;;;;;9.10;71.95;100200.84;5003187;28;20041;-67
2021/11/21 00:37:22;;;;;;;18.15;10.48;;;;;;;8.99;72.39;100195.72;5005951;28;20061;-67
2021/11/21 00:39:48;;;;;;;21.15;11.45;;;;;;;8.98;72.58;100209.06;5006194;28;20058;-67
2021/11/21 00:42:15;;;;;;;23.30;12.40;;;;;;;8.94;72.78;100204.06;5006156;28;20041;-69
2021/11/21 00:44:43;;;;;;;18.88;9.98;;;;;;;8.98;72.59;100203.78;5006397;28;20463;-67
2021/11/21 00:47:10;;;;;;;17.08;9.80;;;;;;;8.99;72.42;100202.81;5006217;28;20212;-67
2021/11/21 00:49:36;;;;;;;20.67;10.63;;;;;;;9.27;70.92;100204.56;5005910;28;20018;-67
2021/11/21 00:52:02;;;;;;;16.10;9.85;;;;;;;9.25;71.01;100202.06;5005985;28;20053;-67
2021/11/21 00:54:52;;;;;;;16.05;9.90;;;;;;;9.41;70.14;100209.44;5005986;28;20034;-68
2021/11/21 00:57:14;;;;;;;19.65;9.82;;;;;;;9.16;71.32;100205.56;5005456;28;20061;-67
2021/11/21 00:59:40;;;;;;;16.95;10.20;;;;;;;9.13;71.81;100192.66;5005933;28;20080;-67
2021/11/21 01:02:09;;;;;;;17.70;10.98;;;;;;;9.21;71.30;100192.78;5005900;28;20093;-67
2021/11/21 01:04:36;;;;;;;19.33;10.05;;;;;;;9.27;70.97;100191.38;5005604;28;20030;-68
2021/11/21 01:07:03;;;;;;;17.75;10.38;;;;;;;9.43;70.23;100183.69;5005759;28;20076;-66
2021/11/21 01:09:28;;;;;;;34.25;12.32;;;;;;;9.43;70.16;100183.69;5005361;28;20038;-67
2021/11/21 01:11:56;;;;;;;17.38;10.18;;;;;;;9.22;71.60;100183.03;5005651;28;20346;-68
2021/11/21 01:14:23;;;;;;;21.33;10.93;;;;;;;9.22;70.87;100180.38;5004368;28;20093;-68
2021/11/21 01:16:49;;;;;;;16.52;10.15;;;;;;;9.41;70.61;100182.19;5005599;28;20044;-66
2021/11/21 01:19:15;;;;;;;16.70;10.57;;;;;;;9.36;70.74;100179.94;5005350;28;20282;-68
2021/11/21 01:21:40;;;;;;;16.08;10.52;;;;;;;9.34;71.00;100171.31;5005528;28;20038;-67
2021/11/21 01:24:06;;;;;;;18.30;10.80;;;;;;;9.41;70.73;100177.72;5005314;28;20038;-67
2021/11/21 01:26:31;;;;;;;17.30;10.55;;;;;;;9.39;70.19;100171.75;5005686;28;20232;-67
2021/11/21 01:28:57;;;;;;;19.85;11.63;;;;;;;9.61;69.87;100181.13;5005313;28;20046;-67
2021/11/21 01:31:23;;;;;;;26.77;15.30;;;;;;;9.69;69.03;100178.59;5005536;28;20026;-68
2021/11/21 01:33:49;;;;;;;29.52;15.13;;;;;;;9.75;69.05;100180.66;5005162;28;20034;-68
2021/11/21 01:36:15;;;;;;;19.92;10.73;;;;;;;9.66;69.46;100178.88;5004888;28;20049;-67
2021/11/21 01:38:42;;;;;;;18.60;10.63;;;;;;;9.47;70.28;100184.25;5005130;28;20031;-67
2021/11/21 01:41:09;;;;;;;16.33;11.05;;;;;;;9.34;70.69;100181.06;5005233;28;20108;-67
2021/11/21 01:43:34;;;;;;;19.80;11.38;;;;;;;9.40;70.36;100177.88;5004929;28;20335;-67
2021/11/21 01:46:00;;;;;;;74.90;26.23;;;;;;;9.47;70.23;100182.44;5004531;28;20042;-67
2021/11/21 01:48:25;;;;;;;103.88;32.75;;;;;;;9.25;70.82;100178.28;5004337;28;20018;-67
2021/11/21 01:50:53;;;;;;;39.20;17.48;;;;;;;8.95;71.94;100167.94;5004726;28;20042;-68
2021/11/21 01:53:18;;;;;;;33.45;14.50;;;;;;;9.11;71.63;100177.91;5004971;28;20093;-68
2021/11/21 01:55:47;;;;;;;39.42;15.23;;;;;;;8.88;72.00;100169.47;5004747;28;20084;-67
2021/11/21 01:58:13;;;;;;;23.25;12.50;;;;;;;8.76;71.79;100170.59;5004805;28;20035;-67
2021/11/21 02:00:42;;;;;;;33.92;14.15;;;;;;;8.63;72.43;100170.88;5004720;28;20044;-67
2021/11/21 02:03:07;;;;;;;22.48;11.57;;;;;;;8.50;72.36;100176.44;5004724;28;20058;-68
2021/11/21 02:05:33;;;;;;;20.80;11.15;;;;;;;8.29;73.51;100171.22;5004701;28;20185;-66
2021/11/21 02:07:59;;;;;;;39.15;15.20;;;;;;;8.42;72.68;100167.53;5004497;28;20041;-68
2021/11/21 02:10:25;;;;;;;67.35;20.02;;;;;;;8.39;72.92;100163.38;5004548;28;20042;-69
2021/11/21 02:12:52;;;;;;;96.60;24.08;;;;;;;8.53;71.60;100152.41;5004360;28;20061;-68
2021/11/21 02:15:22;;;;;;;39.65;13.93;;;;;;;7.92;73.82;100162.25;5004620;28;20038;-67
2021/11/21 02:17:48;;;;;;;47.72;15.07;;;;;;;7.96;73.77;100161.00;5004495;28;20266;-68
2021/11/21 02:20:42;;;;;;;48.63;15.75;;;;;;;8.08;73.77;100159.94;5004579;28;20069;-67
2021/11/21 02:23:08;;;;;;;28.85;12.27;;;;;;;7.80;73.78;100158.88;5004477;28;20030;-67
2021/11/21 02:25:36;;;;;;;65.50;18.17;;;;;;;8.00;73.45;100155.34;5004381;28;20351;-67
2021/11/21 02:28:02;;;;;;;41.13;14.55;;;;;;;7.79;74.20;100143.19;5004204;28;20320;-68
2021/11/21 02:30:27;;;;;;;25.77;13.13;;;;;;;7.60;75.47;100151.88;5004261;28;20081;-68
2021/11/21 02:32:54;;;;;;;27.50;13.85;;;;;;;7.50;75.70;100140.47;5004130;28;20052;-67
2021/11/21 02:35:21;;;;;;;26.00;12.60;;;;;;;7.64;76.30;100143.56;5003977;28;20101;-68
2021/11/21 02:37:47;;;;;;;21.05;12.32;;;;;;;7.55;75.81;100136.47;5003825;28;20046;-66
2021/11/21 02:40:14;;;;;;;22.27;11.85;;;;;;;7.88;75.02;100124.78;5003895;28;20069;-67
2021/11/21 02:42:40;;;;;;;20.50;11.88;;;;;;;7.86;74.46;100137.25;5002701;28;20046;-67
2021/11/21 02:45:18;;;;;;;19.27;11.70;;;;;;;7.87;74.46;100140.72;5003972;28;20023;-68
2021/11/21 02:47:45;;;;;;;29.77;14.32;;;;;;;7.87;74.64;100143.38;5002619;28;20030;-68
2021/11/21 02:50:17;;;;;;;26.17;14.18;;;;;;;7.79;74.88;100135.28;5003761;28;20038;-67
2021/11/21 02:52:43;;;;;;;28.23;14.80;;;;;;;7.59;74.52;100142.31;5003985;28;20038;-67
2021/11/21 02:55:09;;;;;;;25.17;13.95;;;;;;;7.67;75.17;100139.84;5003933;28;20038;-67
2021/11/21 02:57:35;;;;;;;32.63;15.50;;;;;;;7.62;75.52;100142.03;5003316;28;20041;-67
2021/11/21 03:00:03;;;;;;;28.90;14.18;;;;;;;7.82;74.09;100143.78;5003606;28;20193;-68
2021/11/21 03:02:28;;;;;;;26.83;13.77;;;;;;;7.61;74.76;100132.47;5003526;28;20371;-66
2021/11/21 03:04:56;;;;;;;37.83;15.80;;;;;;;7.26;75.65;100135.47;5003878;28;20038;-66
2021/11/21 03:07:22;;;;;;;56.08;18.90;;;;;;;7.42;75.39;100143.78;5003299;28;20026;-67
2021/11/21 03:09:49;;;;;;;56.25;18.55;;;;;;;7.77;74.64;100138.06;5003295;28;20049;-68
2021/11/21 03:12:17;;;;;;;23.65;13.23;;;;;;;8.07;71.75;100133.69;5003295;28;20301;-68
2021/11/21 03:14:43;;;;;;;24.17;12.65;;;;;;;7.67;73.32;100145.94;5003407;28;20034;-67
2021/11/21 03:17:10;;;;;;;19.02;11.38;;;;;;;7.64;72.98;100148.00;5003150;28;20065;-67
2021/11/21 03:19:35;;;;;;;20.23;11.55;;;;;;;7.67;71.71;100142.47;5003121;28;20034;-66
2021/11/21 03:22:01;;;;;;;22.60;12.48;;;;;;;7.76;71.71;100148.75;5003237;28;20033;-69
2021/11/21 03:24:26;;;;;;;19.77;11.68;;;;;;;7.87;70.26;100148.63;5003455;28;20030;-70
2021/11/21 03:26:52;;;;;;;24.17;11.93;;;;;;;7.87;71.14;100153.91;5003324;28;20065;-71
2021/11/21 03:29:17;;;;;;;58.58;19.38;;;;;;;7.90;71.83;100154.47;5003030;28;20034;-70
2021/11/21 03:31:43;;;;;;;25.38;12.05;;;;;;;7.97;71.79;100146.84;5001758;28;20034;-69
2021/11/21 03:34:08;;;;;;;25.35;11.63;;;;;;;7.85;72.28;100142.66;5003016;28;20034;-69
2021/11/21 03:36:34;;;;;;;17.90;11.48;;;;;;;7.87;71.89;100149.47;5003069;28;20105;-69
2021/11/21 03:39:00;;;;;;;20.25;11.10;;;;;;;7.86;71.26;100153.06;5002949;28;20081;-70
2021/11/21 03:41:26;;;;;;;18.88;11.00;;;;;;;7.91;70.86;100148.22;5003080;28;20038;-69
2021/11/21 03:43:51;;;;;;;18.80;11.35;;;;;;;7.89;71.38;100150.16;5002859;28;20038;-71
2021/11/21 03:46:17;;;;;;;17.98;11.50;;;;;;;7.74;71.54;100138.34;5003125;28;20244;-71
2021/11/21 03:48:43;;;;;;;23.25;12.00;;;;;;;7.77;72.02;100145.16;5002692;28;20045;-70
2021/11/21 03:51:09;;;;;;;19.95;12.07;;;;;;;7.78;72.13;100141.53;5003062;28;20270;-69
2021/11/21 03:53:35;;;;;;;17.40;11.13;;;;;;;7.83;71.15;100141.97;5002917;28;20061;-70
2021/11/21 03:56:01;;;;;;;22.30;11.25;;;;;;;7.59;71.43;100143.16;5002683;28;20061;-67
2021/11/21 03:58:26;;;;;;;21.52;10.82;;;;;;;7.56;71.18;100140.78;5002855;28;20224;-67
2021/11/21 04:00:52;;;;;;;19.63;11.52;;;;;;;7.54;71.37;100140.06;5017908;28;20031;-67
2021/11/21 04:03:18;;;;;;;20.00;10.55;;;;;;;7.62;70.25;100142.03;5002793;28;20252;-71
2021/11/21 04:05:44;;;;;;;17.20;10.43;;;;;;;7.57;71.19;100144.25;5002675;28;20205;-70
2021/11/21 04:08:11;;;;;;;20.52;11.55;;;;;;;7.59;71.52;100145.78;5002439;28;20050;-70
2021/11/21 04:10:37;;;;;;;22.15;11.18;;;;;;;7.61;70.16;100154.38;5004817;28;20029;-69
2021/11/21 04:13:06;;;;;;;32.65;13.20;;;;;;;7.41;69.33;100136.84;5006587;28;20046;-69
2021/11/21 04:15:32;;;;;;;84.20;34.63;;;;;;;7.36;71.50;100142.50;5006784;28;20045;-69
2021/11/21 04:17:58;;;;;;;69.13;23.58;;;;;;;7.51;70.65;100150.03;5006454;28;20034;-70
2021/11/21 04:20:24;;;;;;;48.45;20.33;;;;;;;7.48;70.40;100152.94;5006539;28;20120;-71
2021/11/21 04:22:50;;;;;;;36.50;16.20;;;;;;;7.47;70.21;100152.09;5006814;28;20105;-71
2021/11/21 04:25:15;;;;;;;45.53;19.10;;;;;;;7.41;69.66;100157.91;5006611;28;20204;-69
2021/11/21 04:27:41;;;;;;;21.33;11.80;;;;;;;7.30;70.26;100155.34;5006530;28;20050;-70
2021/11/21 04:30:10;;;;;;;23.88;12.93;;;;;;;7.23;71.25;100151.56;5006474;28;20033;-69
2021/11/21 04:32:37;;;;;;;18.45;11.30;;;;;;;7.22;70.17;100149.88;5006436;28;20026;-69
2021/11/21 04:35:08;;;;;;;22.42;12.70;;;;;;;7.18;70.66;100154.56;5006328;28;20042;-69
2021/11/21 04:37:35;;;;;;;32.15;15.50;;;;;;;7.15;71.47;100149.56;5006102;28;20064;-71
2021/11/21 04:40:00;;;;;;;20.30;11.40;;;;;;;7.11;71.30;100142.88;5006273;28;20069;-71
2021/11/21 04:42:26;;;;;;;20.00;11.95;;;;;;;7.18;71.29;100146.66;5006179;28;20041;-70
2021/11/21 04:44:51;;;;;;;22.67;11.35;;;;;;;7.20;71.32;100146.53;5006079;28;20041;-69
2021/11/21 04:47:17;;;;;;;20.00;10.85;;;;;;;7.13;71.65;100158.56;5005965;28;20038;-69
2021/11/21 04:49:42;;;;;;;22.58;11.65;;;;;;;7.13;71.90;100158.56;5006026;28;20026;-69
2021/11/21 04:52:09;;;;;;;26.08;11.50;;;;;;;7.22;71.73;100161.25;5006027;28;20320;-69
2021/11/21 04:54:35;;;;;;;18.48;11.20;;;;;;;7.17;70.72;100163.44;5006003;28;20106;-71
2021/11/21 04:57:01;;;;;;;25.90;10.73;;;;;;;7.13;70.65;100150.66;5006261;28;20340;-70
2021/11/21 04:59:26;;;;;;;26.10;10.80;;;;;;;7.07;70.78;100159.91;5005967;28;20265;-69
2021/11/21 05:01:52;;;;;;;20.73;10.90;;;;;;;7.01;70.52;100163.06;5005786;28;20030;-69
2021/11/21 05:04:17;;;;;;;25.65;11.05;;;;;;;6.95;70.30;100163.56;5005760;28;20097;-69
2021/11/21 05:06:43;;;;;;;27.55;12.95;;;;;;;6.97;72.04;100166.91;5005880;28;20034;-69
2021/11/21 05:09:09;;;;;;;26.52;12.15;;;;;;;6.94;71.80;100165.38;5005490;28;20050;-70
2021/11/21 05:11:35;;;;;;;28.38;12.57;;;;;;;6.89;72.50;100161.47;5005751;28;20026;-69
2021/11/21 05:14:02;;;;;;;27.20;13.07;;;;;;;6.84;71.20;100169.75;5005524;28;20042;-69
2021/11/21 05:16:28;;;;;;;28.55;13.07;;;;;;;6.90;70.57;100157.88;5005827;28;20026;-69
2021/11/21 05:18:54;;;;;;;20.50;10.32;;;;;;;6.83;68.79;100160.19;5005661;28;20101;-69
2021/11/21 05:21:21;;;;;;;23.20;10.02;;;;;;;6.68;67.92;100151.75;5005539;28;20113;-70
2021/11/21 05:23:47;;;;;;;21.83;10.43;;;;;;;6.68;70.81;100161.44;5005475;28;20328;-69
2021/11/21 05:26:12;;;;;;;26.50;11.05;;;;;;;6.67;72.11;100167.69;5005403;28;20037;-71
2021/11/21 05:28:38;;;;;;;25.27;11.10;;;;;;;6.51;72.01;100168.09;5005428;28;20030;-69
2021/11/21 05:31:04;;;;;;;24.00;12.27;;;;;;;6.50;72.21;100163.81;5005462;28;20026;-70
2021/11/21 05:33:29;;;;;;;32.75;13.38;;;;;;;6.61;72.11;100169.03;5005287;28;20248;-69
2021/11/21 05:35:55;;;;;;;34.13;14.77;;;;;;;6.78;72.06;100164.16;5005022;28;20076;-69
2021/11/21 05:38:20;;;;;;;30.73;12.90;;;;;;;6.83;71.95;100165.44;5005090;28;20072;-70
2021/11/21 05:40:46;;;;;;;34.50;14.25;;;;;;;6.86;71.07;100167.81;5005300;28;20026;-70
2021/11/21 05:43:11;;;;;;;24.58;13.13;;;;;;;6.85;70.98;100157.41;5005101;28;20038;-71
2021/11/21 05:45:37;;;;;;;26.15;13.73;;;;;;;6.76;70.15;100100.28;5005218;28;20034;-69
2021/11/21 05:48:03;;;;;;;28.58;12.15;;;;;;;7.06;69.96;100163.50;5004977;28;20042;-70
2021/11/21 05:50:28;;;;;;;26.48;12.75;;;;;;;7.04;69.18;100176.81;5004979;28;20038;-69
2021/11/21 05:52:54;;;;;;;24.20;12.10;;;;;;;6.98;69.99;100160.69;5005052;28;20045;-70
2021/11/21 05:55:21;;;;;;;21.23;11.55;;;;;;;6.93;70.45;100173.41;5005127;28;20018;-69
2021/11/21 05:57:48;;;;;;;24.83;12.02;;;;;;;6.91;71.22;100167.44;5004890;28;20053;-69
2021/11/21 06:00:19;;;;;;;25.38;12.73;;;;;;;7.03;72.70;100167.25;5004818;28;20030;-70
2021/11/21 06:02:45;;;;;;;26.92;12.05;;;;;;;7.13;72.75;100159.41;5004813;28;20057;-70
2021/11/21 06:05:10;;;;;;;27.63;13.15;;;;;;;7.31;73.33;100170.19;5004730;28;20331;-69
2021/11/21 06:07:36;;;;;;;22.85;11.80;;;;;;;7.41;73.28;100162.34;5004522;28;20042;-69
2021/11/21 06:10:04;;;;;;;19.70;11.32;;;;;;;7.51;73.45;100171.97;5004507;28;20053;-69
2021/11/21 06:12:30;;;;;;;25.10;12.30;;;;;;;7.63;73.63;100170.91;5004553;28;20228;-69
2021/11/21 06:14:56;;;;;;;18.67;11.52;;;;;;;7.72;73.87;100176.34;5004462;28;20373;-71
2021/11/21 06:17:21;;;;;;;24.63;13.75;;;;;;;7.92;73.29;100181.53;5004165;28;20038;-70
2021/11/21 06:19:47;;;;;;;48.58;21.77;;;;;;;7.89;73.46;100181.81;5004306;28;20038;-69
2021/11/21 06:22:13;;;;;;;149.10;56.65;;;;;;;7.78;74.26;100178.44;5004385;28;20277;-70
2021/11/21 06:24:39;;;;;;;65.80;28.92;;;;;;;7.49;74.68;100175.69;5004285;28;20034;-69
2021/11/21 06:27:05;;;;;;;47.55;22.58;;;;;;;7.31;76.61;100170.19;5003154;28;20034;-69
2021/11/21 06:29:31;;;;;;;32.08;16.98;;;;;;;7.19;76.78;100177.31;5004106;28;20279;-71
2021/11/21 06:31:56;;;;;;;24.45;13.68;;;;;;;7.09;78.35;100168.53;5004219;28;20061;-70
2021/11/21 06:34:22;;;;;;;23.75;14.35;;;;;;;7.39;76.94;100173.00;5003584;28;20034;-70
2021/11/21 06:36:47;;;;;;;23.77;13.98;;;;;;;7.53;76.65;100174.47;5003825;28;20105;-69
2021/11/21 06:39:13;;;;;;;23.33;13.80;;;;;;;7.54;76.82;100174.34;5004020;28;20205;-69
2021/11/21 06:41:39;;;;;;;22.55;13.45;;;;;;;7.63;77.79;100172.69;5004128;28;20254;-69
2021/11/21 06:44:06;;;;;;;23.88;13.65;;;;;;;7.76;76.96;100180.38;5003825;28;20332;-69
2021/11/21 06:46:33;;;;;;;24.90;14.50;;;;;;;7.69;77.85;100178.28;5004303;28;20030;-69
2021/11/21 06:49:00;;;;;;;27.35;14.07;;;;;;;7.59;79.04;100173.94;5003755;28;20042;-71
2021/11/21 06:51:27;;;;;;;23.15;13.55;;;;;;;7.53;78.80;100135.78;5004006;28;20109;-71
2021/11/21 06:53:53;;;;;;;29.05;14.60;;;;;;;8.17;76.94;100179.38;5004171;28;20026;-67
2021/11/21 06:56:18;;;;;;;45.20;16.63;;;;;;;8.41;75.30;100179.91;5003641;28;20320;-67
2021/11/21 06:58:45;;;;;;;22.90;13.43;;;;;;;8.95;72.37;100162.66;5003644;28;20030;-67
2021/11/21 07:01:10;;;;;;;31.05;16.02;;;;;;;9.35;71.07;100164.22;5003836;28;20101;-67
2021/11/21 07:03:36;;;;;;;58.55;20.25;;;;;;;9.53;70.36;100166.00;5003804;28;20034;-67
2021/11/21 07:06:01;;;;;;;35.83;18.92;;;;;;;9.63;69.54;100160.66;5003345;28;20034;-67
2021/11/21 07:08:27;;;;;;;32.00;17.58;;;;;;;9.90;68.54;100157.19;5003258;28;20073;-67
2021/11/21 07:10:53;;;;;;;34.88;20.92;;;;;;;10.36;67.13;100152.75;5003750;28;20036;-67
2021/11/21 07:13:21;;;;;;;29.77;16.02;;;;;;;10.71;65.76;100147.47;5003316;28;20037;-68
2021/11/21 07:15:47;;;;;;;46.65;18.58;;;;;;;10.90;65.38;100146.47;5003378;28;20041;-69
2021/11/21 07:18:13;;;;;;;28.10;15.30;;;;;;;11.14;63.67;100151.94;5003365;28;20038;-69
2021/11/21 07:20:38;;;;;;;28.52;15.07;;;;;;;11.30;63.05;100151.19;5003167;28;20030;-67
2021/11/21 07:23:05;;;;;;;34.00;16.90;;;;;;;11.21;63.79;100160.09;5003372;28;20038;-67
2021/11/21 07:25:31;;;;;;;39.53;20.65;;;;;;;11.30;64.43;100155.66;5003539;28;20018;-67
2021/11/21 07:27:58;;;;;;;37.78;22.33;;;;;;;11.04;64.45;100131.81;5003189;28;20026;-70
2021/11/21 07:30:24;;;;;;;41.75;22.95;;;;;;;11.11;65.04;100154.91;5003084;28;20104;-70
2021/11/21 07:32:52;;;;;;;34.40;18.13;;;;;;;11.44;63.94;100149.78;5003235;28;20038;-70
2021/11/21 07:35:19;;;;;;;29.42;16.50;;;;;;;11.53;63.50;100154.19;5003175;28;20054;-70
2021/11/21 07:37:46;;;;;;;26.50;15.55;;;;;;;11.61;63.35;100142.78;5002894;28;20342;-70
2021/11/21 07:40:12;;;;;;;29.88;16.73;;;;;;;11.57;63.94;100152.88;5001843;28;20300;-70
2021/11/21 07:42:39;;;;;;;31.00;16.77;;;;;;;11.89;63.18;100144.25;5002923;28;20085;-71
2021/11/21 07:45:07;;;;;;;29.38;16.65;;;;;;;11.95;63.63;100148.91;5000853;28;20350;-71
2021/11/21 07:47:33;;;;;;;28.20;16.58;;;;;;;12.04;63.02;100141.81;5002889;28;20030;-70
2021/11/21 07:49:59;;;;;;;31.75;17.27;;;;;;;12.11;62.53;100140.16;5002926;28;20042;-69
2021/11/21 07:52:25;;;;;;;25.40;15.15;;;;;;;12.14;62.55;100135.34;5002911;28;20034;-70
2021/11/21 07:54:52;;;;;;;22.88;14.45;;;;;;;12.07;62.62;100141.47;5002812;28;20033;-70
2021/11/21 07:57:17;;;;;;;25.92;13.82;;;;;;;12.23;62.13;100127.41;5002740;28;20248;-69
2021/11/21 07:59:43;;;;;;;25.55;14.15;;;;;;;12.15;62.31;100129.06;5002722;28;20030;-70
2021/11/21 08:02:08;;;;;;;22.92;14.98;;;;;;;12.05;62.62;100128.38;5002717;28;20076;-70
2021/11/21 08:04:34;;;;;;;25.90;15.48;;;;;;;11.93;63.17;100131.50;5002744;28;20065;-67
2021/11/21 08:07:00;;;;;;;20.38;13.57;;;;;;;12.26;62.17;100122.59;5002652;28;20030;-69
2021/11/21 08:09:25;;;;;;;31.30;14.70;;;;;;;12.31;62.07;100124.78;5002450;28;20079;-68
2021/11/21 08:11:51;;;;;;;22.83;13.30;;;;;;;12.15;62.28;100121.09;5002557;28;20034;-66
2021/11/21 08:14:17;;;;;;;22.25;14.57;;;;;;;11.96;63.10;100117.91;5002666;28;20102;-67
2021/11/21 08:16:42;;;;;;;27.63;15.85;;;;;;;12.27;62.47;100116.31;5002726;28;20084;-67
2021/11/21 08:19:10;;;;;;;23.15;13.38;;;;;;;12.31;61.38;100119.47;5002486;28;20035;-68
2021/11/21 08:21:36;;;;;;;18.73;12.63;;;;;;;12.46;62.21;100110.69;5002731;28;20272;-67
2021/11/21 08:24:02;;;;;;;28.30;19.27;;;;;;;12.78;60.99;100103.72;5002494;28;20034;-67
2021/11/21 08:26:27;;;;;;;27.73;13.75;;;;;;;12.96;60.14;100104.38;5002902;28;20069;-68
2021/11/21 08:28:53;;;;;;;24.42;15.25;;;;;;;12.81;60.28;100108.72;5002493;28;20101;-67
2021/11/21 08:31:18;;;;;;;27.33;16.92;;;;;;;12.74;61.38;100102.41;5002453;28;20227;-68
2021/11/21 08:33:44;;;;;;;20.02;12.85;;;;;;;12.91;60.58;100104.03;5002636;28;20030;-68
2021/11/21 08:36:09;;;;;;;21.60;14.35;;;;;;;12.83;60.94;100097.91;5002172;28;20050;-67
2021/11/21 08:38:35;;;;;;;22.17;13.38;;;;;;;13.32;59.79;100099.50;5001495;28;20316;-68
2021/11/21 08:41:02;;;;;;;21.90;14.43;;;;;;;13.27;59.40;100101.00;5002731;28;20037;-68
2021/11/21 08:43:27;;;;;;;28.50;14.95;;;;;;;13.32;59.32;100098.66;5017547;28;20035;-67
2021/11/21 08:45:53;;;;;;;23.20;14.30;;;;;;;13.30;59.04;100093.53;5002321;28;20101;-68
2021/11/21 08:48:19;;;;;;;28.77;15.38;;;;;;;13.38;59.17;100088.16;5002371;28;20105;-67
2021/11/21 08:50:44;;;;;;;24.77;14.57;;;;;;;13.39;58.59;100089.00;5002446;28;20384;-67
2021/11/21 08:53:10;;;;;;;21.63;12.77;;;;;;;13.17;58.81;100082.59;5001207;28;20034;-68
2021/11/21 08:55:35;;;;;;;23.55;14.05;;;;;;;12.82;60.17;100064.38;5002387;28;20018;-67
2021/11/21 08:58:04;;;;;;;21.73;12.02;;;;;;;13.05;59.50;100068.78;5005825;28;20073;-67
2021/11/21 09:00:29;;;;;;;22.70;13.75;;;;;;;13.26;59.53;100062.94;5006006;28;20026;-67
2021/11/21 09:02:55;;;;;;;20.95;13.25;;;;;;;13.30;59.64;100063.44;5005849;28;20034;-68
2021/11/21 09:05:23;;;;;;;23.20;13.05;;;;;;;13.38;58.88;100055.44;5004713;28;20116;-68
2021/11/21 09:07:49;;;;;;;20.92;13.63;;;;;;;13.42;58.88;100049.59;5005470;28;20038;-68
2021/11/21 09:10:18;;;;;;;19.17;12.48;;;;;;;13.35;58.61;100056.59;5005825;28;20038;-67
2021/11/21 09:12:44;;;;;;;22.05;12.48;;;;;;;13.32;58.61;100046.31;5005583;28;20038;-68
2021/11/21 09:15:14;;;;;;;21.65;11.90;;;;;;;13.36;58.59;100031.66;5005652;28;20026;-67
2021/11/21 09:17:45;;;;;;;19.70;12.18;;;;;;;13.34;58.85;100028.34;5005638;28;20073;-67
2021/11/21 09:20:10;;;;;;;22.10;13.25;;;;;;;13.51;57.96;100039.75;5005728;28;20057;-68
2021/11/21 09:22:36;;;;;;;23.45;15.23;;;;;;;13.53;57.58;100021.81;5005578;28;20379;-67
2021/11/21 09:25:03;;;;;;;27.65;16.10;;;;;;;13.36;57.64;100017.53;5004286;28;20026;-67
2021/11/21 09:27:28;;;;;;;20.20;11.85;;;;;;;13.51;57.27;100014.97;5005441;28;20260;-67
2021/11/21 09:29:54;;;;;;;19.00;11.90;;;;;;;13.43;57.94;100008.69;5005391;28;20140;-67
2021/11/21 09:32:19;;;;;;;22.70;13.43;;;;;;;13.44;57.67;100004.19;5005471;28;20077;-67
2021/11/21 09:34:45;;;;;;;19.30;12.90;;;;;;;13.41;56.93;100001.88;5005288;28;20034;-67
2021/11/21 09:37:11;;;;;;;22.80;12.65;;;;;;;13.40;57.66;100000.22;5005075;28;20101;-67
2021/11/21 09:39:37;;;;;;;25.70;13.30;;;;;;;13.63;57.47;99993.13;5005118;28;20053;-67
2021/11/21 09:42:03;;;;;;;21.08;12.80;;;;;;;13.67;57.63;99990.97;5005134;28;20034;-66
2021/11/21 09:44:29;;;;;;;21.33;13.20;;;;;;;13.96;56.08;99982.28;5005034;28;20035;-68
2021/11/21 09:46:55;;;;;;;20.02;13.05;;;;;;;13.95;55.89;99981.44;5005095;28;20045;-68
2021/11/21 09:49:21;;;;;;;23.30;14.30;;;;;;;13.49;57.52;99964.59;5003745;28;20445;-67
2021/11/21 09:51:47;;;;;;;23.88;13.93;;;;;;;13.57;57.46;99969.06;5004922;28;20026;-69
2021/11/21 09:54:14;;;;;;;22.65;13.52;;;;;;;13.61;57.71;99960.56;5004835;28;20352;-69
2021/11/21 09:56:43;;;;;;;21.70;13.55;;;;;;;13.69;56.33;99963.16;5004677;28;20054;-70
2021/11/21 09:59:09;;;;;;;23.48;13.00;;;;;;;13.71;56.05;99947.03;5004665;28;20046;-67
2021/11/21 10:01:40;;;;;;;20.52;13.70;;;;;;;13.81;56.46;99944.94;5004886;28;20045;-68
2021/11/21 10:04:08;;;;;;;28.83;15.52;;;;;;;13.68;57.54;99950.88;5004603;28;20027;-69
2021/11/21 10:06:45;;;;;;;26.98;17.67;;;;;;;13.61;57.99;99946.44;5004516;28;20337;-69
2021/11/21 10:09:13;;;;;;;27.70;15.38;;;;;;;13.65;57.75;99940.56;5003459;28;20247;-69
2021/11/21 10:12:01;;;;;;;23.90;15.52;;;;;;;13.84;57.29;99935.78;5004769;28;20093;-69
2021/11/21 10:14:27;;;;;;;22.80;14.20;;;;;;;13.80;57.11;99934.50;5004572;28;20225;-69
2021/11/21 10:16:53;;;;;;;22.60;13.32;;;;;;;14.00;55.90;99927.66;5004353;28;20293;-70
2021/11/21 10:19:19;;;;;;;24.15;14.85;;;;;;;14.06;56.03;99918.97;5004289;28;20030;-70
2021/11/21 10:21:56;;;;;;;22.05;13.35;;;;;;;14.12;56.97;99915.56;5004710;28;20239;-68
2021/11/21 10:24:28;;;;;;;21.42;13.00;;;;;;;13.86;58.09;99909.81;5004274;28;20039;-67
2021/11/21 10:27:12;;;;;;;21.27;12.82;;;;;;;13.81;57.43;99909.53;5004211;28;20041;-70
2021/11/21 10:29:40;;;;;;;29.67;13.52;;;;;;;13.82;57.73;99892.56;5004297;28;20034;-70
2021/11/21 10:32:34;;;;;;;19.13;12.48;;;;;;;13.99;57.53;99897.56;5004003;28;20045;-69
2021/11/21 10:35:01;;;;;;;20.58;12.13;;;;;;;14.17;56.57;99893.72;5004140;28;20108;-68
2021/11/21 10:37:31;;;;;;;21.52;12.68;;;;;;;14.37;56.25;99895.69;5003823;28;20089;-67
2021/11/21 10:40:03;;;;;;;18.80;10.63;;;;;;;13.98;57.22;99890.56;5004098;28;20050;-68
2021/11/21 10:42:30;;;;;;;15.00;9.18;;;;;;;13.97;56.14;99880.94;5003830;28;20035;-67
2021/11/21 10:44:56;;;;;;;16.05;9.93;;;;;;;14.19;55.36;99884.53;5003910;28;20327;-67
2021/11/21 10:47:21;;;;;;;15.52;9.85;;;;;;;14.18;55.77;99880.22;5003712;28;20034;-69
2021/11/21 10:49:52;;;;;;;15.65;10.50;;;;;;;14.28;55.23;99872.81;5003749;28;20101;-68
2021/11/21 10:52:21;;;;;;;17.83;11.05;;;;;;;14.22;54.70;99862.88;5003999;28;20049;-68
2021/11/21 10:54:50;;;;;;;51.85;21.95;;;;;;;14.41;54.35;99866.84;5003681;28;20026;-68
2021/11/21 10:57:20;;;;;;;26.75;13.45;;;;;;;14.44;54.22;99869.16;5003923;28;20077;-67
2021/11/21 10:59:52;;;;;;;20.17;12.93;;;;;;;14.10;55.71;99863.50;5003680;28;20354;-68
2021/11/21 11:02:22;;;;;;;20.02;11.88;;;;;;;14.16;55.33;99860.13;5003858;28;20046;-70
2021/11/21 11:05:00;;;;;;;18.98;10.40;;;;;;;14.34;54.53;99857.91;5003600;28;20042;-70
2021/11/21 11:07:26;;;;;;;17.85;11.95;;;;;;;14.20;54.79;99853.41;5018523;28;20061;-69
2021/11/21 11:09:53;;;;;;;18.05;11.38;;;;;;;14.03;54.82;99852.75;5003262;28;20049;-69
2021/11/21 11:12:20;;;;;;;31.85;12.43;;;;;;;14.45;54.61;99854.84;5003258;28;20291;-68
2021/11/21 11:14:46;;;;;;;20.00;11.32;;;;;;;14.28;55.02;99845.34;5003416;28;20061;-68